Time;durP1;ratioP1;P1;durP2;ratioP2;P2;SDS_P1;SDS_P2;PMS_P1;PMS_P2;Temp;Humidity;BMP_temperature;BMP_pressure;BME280_temperature;BME280_humidity;BME280_pressure;Samples;Min_cycle;Max_cycle;Signal;HPM_P1;HPM_P2
2022/07/10 00:00:37;;;;;;;5.15;3.05;;;15.80;99.90;;;;;;5073502;28;20074;-57
2022/07/10 00:03:04;;;;;;;11.57;3.35;;;15.80;99.90;;;;;;5072318;28;20075;-57
2022/07/10 00:05:30;;;;;;;9.43;3.60;;;15.60;99.90;;;;;;5073314;28;20070;-58
2022/07/10 00:07:56;;;;;;;10.55;3.58;;;15.60;99.90;;;;;;5073617;28;20052;-57
2022/07/10 00:10:23;;;;;;;9.90;3.67;;;15.50;99.90;;;;;;5073237;28;20494;-57
2022/07/10 00:12:50;;;;;;;11.18;3.80;;;15.50;99.90;;;;;;5073010;28;20085;-57
2022/07/10 00:15:17;;;;;;;13.57;3.95;;;15.40;99.90;;;;;;5073562;28;20028;-57
2022/07/10 00:17:43;;;;;;;9.63;4.28;;;15.40;99.90;;;;;;5073404;28;20029;-57
2022/07/10 00:20:10;;;;;;;11.70;3.97;;;15.30;99.90;;;;;;5072903;28;20085;-57
2022/07/10 00:22:37;;;;;;;10.13;3.63;;;15.20;99.90;;;;;;5073040;28;20064;-59
2022/07/10 00:25:05;;;;;;;8.25;3.65;;;15.20;99.90;;;;;;5073182;28;20384;-57
2022/07/10 00:27:30;;;;;;;11.75;4.00;;;15.20;99.90;;;;;;5072804;28;20036;-57
2022/07/10 00:29:56;;;;;;;9.85;3.90;;;15.30;99.90;;;;;;5072897;28;20473;-58
2022/07/10 00:32:22;;;;;;;11.50;3.90;;;15.20;99.90;;;;;;5071446;28;20029;-58
2022/07/10 00:34:48;;;;;;;9.02;4.05;;;15.20;99.90;;;;;;5072596;28;20388;-57
2022/07/10 00:37:13;;;;;;;7.60;3.40;;;15.20;99.90;;;;;;5071648;28;20033;-57
2022/07/10 00:39:39;;;;;;;14.82;4.28;;;15.10;99.90;;;;;;5072859;28;20397;-58
2022/07/10 00:42:13;;;;;;;10.48;3.28;;;15.00;99.90;;;;;;5072575;28;20025;-60
2022/07/10 00:44:39;;;;;;;9.73;3.40;;;15.00;99.90;;;;;;5072579;28;20064;-58
2022/07/10 00:47:06;;;;;;;9.73;3.78;;;15.00;99.90;;;;;;5072417;28;20491;-58
2022/07/10 00:49:33;;;;;;;7.95;3.65;;;15.00;99.90;;;;;;5072602;28;20111;-57
2022/07/10 00:52:01;;;;;;;7.63;3.45;;;15.00;99.90;;;;;;5072123;28;20056;-56
2022/07/10 00:54:30;;;;;;;10.15;3.67;;;15.00;99.90;;;;;;5071989;28;20028;-57
2022/07/10 00:56:57;;;;;;;8.43;3.35;;;15.00;99.90;;;;;;5072691;28;20465;-57
2022/07/10 00:59:23;;;;;;;6.53;3.53;;;15.10;99.90;;;;;;5072855;28;20077;-57
2022/07/10 01:01:50;;;;;;;13.27;3.50;;;15.00;99.90;;;;;;5070773;28;20370;-57
2022/07/10 01:04:16;;;;;;;9.35;3.30;;;15.00;99.90;;;;;;5072586;28;20520;-57
2022/07/10 01:06:42;;;;;;;8.07;3.47;;;15.00;99.90;;;;;;5072229;28;20101;-57
2022/07/10 01:09:07;;;;;;;6.95;3.42;;;15.00;99.90;;;;;;5072248;28;20028;-57
2022/07/10 01:11:34;;;;;;;7.38;3.28;;;15.00;99.90;;;;;;5072520;28;20024;-57
2022/07/10 01:14:00;;;;;;;8.93;3.53;;;15.10;99.90;;;;;;5071746;28;20025;-58
2022/07/10 01:16:26;;;;;;;9.45;3.72;;;15.10;99.90;;;;;;5072060;28;20028;-57
2022/07/10 01:18:52;;;;;;;7.40;3.60;;;15.10;99.90;;;;;;5071997;28;20024;-57
2022/07/10 01:21:29;;;;;;;7.82;3.95;;;15.10;99.90;;;;;;5072100;28;20021;-57
2022/07/10 01:23:55;;;;;;;10.93;3.80;;;15.10;99.90;;;;;;5070395;28;20374;-57
2022/07/10 01:26:23;;;;;;;8.23;3.47;;;15.00;99.90;;;;;;5071683;28;20036;-57
2022/07/10 01:28:50;;;;;;;9.90;4.00;;;15.00;99.90;;;;;;5071806;28;20055;-57
2022/07/10 01:31:17;;;;;;;7.90;4.18;;;15.00;99.90;;;;;;5071443;28;20074;-57
2022/07/10 01:33:44;;;;;;;6.80;4.50;;;15.20;99.90;;;;;;5070150;28;20047;-58
2022/07/10 01:36:11;;;;;;;9.55;4.03;;;15.20;99.90;;;;;;5069946;28;20033;-57
2022/07/10 01:38:36;;;;;;;9.20;4.18;;;15.10;99.90;;;;;;5070280;28;20051;-58
2022/07/10 01:41:02;;;;;;;9.68;4.25;;;14.90;99.90;;;;;;5071539;28;20013;-58
2022/07/10 01:43:28;;;;;;;12.98;4.15;;;14.80;99.90;;;;;;5071314;28;20074;-57
2022/07/10 01:45:53;;;;;;;8.95;3.58;;;14.80;99.90;;;;;;5071592;28;20089;-57
2022/07/10 01:48:19;;;;;;;8.23;4.15;;;14.70;99.90;;;;;;5071389;28;20036;-57
2022/07/10 01:50:45;;;;;;;11.07;3.83;;;14.70;99.90;;;;;;5071641;28;20452;-58
2022/07/10 01:53:10;;;;;;;9.13;3.97;;;14.70;99.90;;;;;;5071124;28;20139;-57
2022/07/10 01:55:36;;;;;;;10.95;4.25;;;14.60;99.90;;;;;;5071230;28;20024;-57
2022/07/10 01:58:02;;;;;;;10.05;4.28;;;14.60;99.90;;;;;;5071303;28;20020;-58
2022/07/10 02:00:28;;;;;;;9.98;4.03;;;14.60;99.90;;;;;;5071356;28;20024;-57
2022/07/10 02:05:38;;;;;;;11.68;4.53;;;14.50;99.90;;;;;;5071052;28;20074;-58
2022/07/10 02:08:05;;;;;;;7.05;4.25;;;14.30;99.90;;;;;;5071542;28;20451;-58
2022/07/10 02:10:31;;;;;;;9.50;4.53;;;14.00;99.90;;;;;;5070111;28;20316;-57
2022/07/10 02:12:57;;;;;;;10.85;5.60;;;13.90;99.90;;;;;;5071013;28;20362;-58
2022/07/10 02:15:23;;;;;;;9.52;4.80;;;14.10;99.90;;;;;;5071046;28;20073;-57
2022/07/10 02:17:49;;;;;;;8.20;5.00;;;14.30;99.90;;;;;;5072001;28;20028;-57
2022/07/10 02:20:15;;;;;;;9.45;4.97;;;14.20;99.90;;;;;;5077471;28;20043;-57
2022/07/10 02:22:41;;;;;;;8.73;4.30;;;14.20;99.90;;;;;;5076486;28;20039;-57
2022/07/10 02:25:07;;;;;;;10.43;4.18;;;14.20;99.90;;;;;;5077537;28;20501;-57
2022/07/10 02:27:32;;;;;;;6.80;4.30;;;14.20;99.90;;;;;;5077762;28;20024;-58
2022/07/10 02:29:58;;;;;;;8.27;3.90;;;14.30;99.90;;;;;;5077536;28;20024;-56
2022/07/10 02:32:24;;;;;;;10.48;4.70;;;14.40;99.90;;;;;;5077469;28;20029;-57
2022/07/10 02:34:50;;;;;;;9.10;4.57;;;14.40;99.90;;;;;;5077510;28;20033;-57
2022/07/10 02:37:15;;;;;;;9.95;4.45;;;14.50;99.90;;;;;;5077411;28;20028;-58
2022/07/10 02:39:41;;;;;;;7.22;3.85;;;14.40;99.90;;;;;;5077730;28;20025;-58
2022/07/10 02:42:07;;;;;;;9.65;4.18;;;14.40;99.90;;;;;;5077343;28;20029;-58
2022/07/10 02:44:32;;;;;;;8.38;3.88;;;14.30;99.90;;;;;;5077514;28;20503;-56
2022/07/10 02:46:58;;;;;;;9.35;4.13;;;14.20;99.90;;;;;;5077536;28;20032;-57
2022/07/10 02:49:23;;;;;;;9.95;4.15;;;14.10;99.90;;;;;;5077740;28;20541;-57
2022/07/10 02:51:50;;;;;;;9.85;4.35;;;14.10;99.90;;;;;;5077213;28;20048;-58
2022/07/10 02:54:16;;;;;;;9.50;4.13;;;14.10;99.90;;;;;;5076160;28;20085;-57
2022/07/10 02:56:42;;;;;;;11.10;4.53;;;14.10;99.90;;;;;;5077175;28;20481;-57
2022/07/10 02:59:07;;;;;;;7.90;4.65;;;14.00;99.90;;;;;;5077512;28;20032;-57
2022/07/10 03:01:33;;;;;;;8.00;4.13;;;14.00;99.90;;;;;;5077385;28;20017;-57
2022/07/10 03:04:01;;;;;;;7.97;4.18;;;13.90;99.90;;;;;;5077434;28;20504;-57
2022/07/10 03:06:27;;;;;;;7.68;3.97;;;13.90;99.90;;;;;;5077636;28;20032;-57
2022/07/10 03:08:52;;;;;;;10.18;3.83;;;13.80;99.90;;;;;;5077625;28;20389;-57
2022/07/10 03:11:18;;;;;;;6.53;3.97;;;13.70;99.90;;;;;;5077370;28;20453;-62
2022/07/10 03:13:43;;;;;;;10.90;3.95;;;13.70;99.90;;;;;;5077182;28;20497;-59
2022/07/10 03:16:09;;;;;;;10.20;4.18;;;13.70;99.90;;;;;;5077244;28;20051;-57
2022/07/10 03:18:35;;;;;;;9.68;3.60;;;13.70;99.90;;;;;;5077543;28;20510;-57
2022/07/10 03:21:00;;;;;;;5.43;3.00;;;13.90;99.90;;;;;;5077370;28;20024;-57
2022/07/10 03:23:26;;;;;;;9.43;3.22;;;14.00;99.90;;;;;;5077001;28;20121;-57
2022/07/10 03:25:51;;;;;;;8.60;3.33;;;14.00;99.90;;;;;;5077121;28;20020;-58
2022/07/10 03:28:17;;;;;;;8.45;2.78;;;14.00;99.90;;;;;;5077336;28;20101;-57
2022/07/10 03:30:43;;;;;;;7.55;3.60;;;14.00;99.90;;;;;;5073780;28;20027;-57
2022/07/10 03:33:08;;;;;;;8.25;3.97;;;14.10;99.90;;;;;;5073757;28;20074;-58
2022/07/10 03:35:34;;;;;;;12.93;4.18;;;14.10;99.90;;;;;;5073802;28;20017;-57
2022/07/10 03:37:59;;;;;;;9.10;4.40;;;14.10;99.90;;;;;;5074176;28;20044;-59
2022/07/10 03:40:26;;;;;;;10.93;4.30;;;14.20;99.90;;;;;;5073759;28;20056;-57
2022/07/10 03:42:52;;;;;;;9.18;4.15;;;14.20;99.90;;;;;;5072159;28;20078;-61
2022/07/10 03:45:17;;;;;;;7.53;4.30;;;14.10;99.90;;;;;;5073803;28;20029;-57
2022/07/10 03:47:43;;;;;;;6.50;3.95;;;14.10;99.90;;;;;;5073966;28;20388;-58
2022/07/10 03:50:09;;;;;;;9.50;3.97;;;14.10;99.90;;;;;;5073494;28;20431;-57
2022/07/10 03:52:35;;;;;;;8.25;4.05;;;14.10;99.90;;;;;;5073758;28;20147;-58
2022/07/10 03:55:01;;;;;;;6.43;3.70;;;14.10;99.90;;;;;;5073469;28;20040;-58
2022/07/10 04:00:11;;;;;;;6.63;3.50;;;14.00;99.90;;;;;;5073564;28;20028;-57
2022/07/10 04:02:37;;;;;;;9.18;3.50;;;13.70;99.90;;;;;;5073457;28;20024;-57
2022/07/10 04:05:06;;;;;;;8.40;3.90;;;13.70;99.90;;;;;;5073345;28;20036;-58
2022/07/10 04:07:32;;;;;;;9.40;4.00;;;13.60;99.90;;;;;;5072090;28;20127;-56
2022/07/10 04:09:57;;;;;;;11.93;4.30;;;13.50;99.90;;;;;;5072102;28;20133;-57
2022/07/10 04:12:23;;;;;;;9.45;4.28;;;13.50;99.90;;;;;;5073320;28;20048;-59
2022/07/10 04:14:51;;;;;;;6.40;4.40;;;13.50;99.90;;;;;;5073362;28;20028;-57
2022/07/10 04:17:19;;;;;;;11.23;4.88;;;13.50;99.90;;;;;;5073032;28;20111;-57
2022/07/10 04:19:46;;;;;;;12.40;4.75;;;13.50;99.90;;;;;;5073356;28;20020;-57
2022/07/10 04:22:12;;;;;;;13.15;4.40;;;13.70;99.90;;;;;;5071625;28;20032;-58
2022/07/10 04:24:38;;;;;;;11.52;5.18;;;13.80;99.90;;;;;;5073185;28;20036;-57
2022/07/10 04:27:04;;;;;;;8.07;4.40;;;13.90;99.90;;;;;;5073206;28;20032;-57
2022/07/10 04:29:30;;;;;;;8.65;4.63;;;13.90;99.90;;;;;;5073464;28;20037;-57
2022/07/10 04:31:56;;;;;;;8.60;4.28;;;13.90;99.90;;;;;;5072654;28;20024;-57
2022/07/10 04:34:22;;;;;;;8.10;4.65;;;13.90;99.90;;;;;;5072461;28;20024;-58
2022/07/10 04:36:47;;;;;;;8.25;4.65;;;14.00;99.90;;;;;;5072610;28;20727;-57
2022/07/10 04:39:13;;;;;;;5.57;4.55;;;14.00;99.90;;;;;;5071315;28;20029;-58
2022/07/10 04:41:39;;;;;;;6.88;4.32;;;14.10;99.90;;;;;;5072333;28;20035;-58
2022/07/10 04:44:04;;;;;;;8.82;4.55;;;14.10;99.90;;;;;;5072499;28;20115;-57
2022/07/10 04:46:30;;;;;;;6.60;4.22;;;14.10;99.90;;;;;;5071336;28;20459;-57
2022/07/10 04:48:56;;;;;;;8.40;5.22;;;14.20;99.90;;;;;;5072853;28;20497;-57
2022/07/10 04:51:23;;;;;;;7.00;4.13;;;14.20;99.90;;;;;;5072304;28;20033;-57
2022/07/10 04:53:49;;;;;;;7.68;3.72;;;14.30;99.90;;;;;;5072220;28;20048;-58
2022/07/10 04:56:15;;;;;;;7.20;4.05;;;14.30;99.90;;;;;;5072087;28;20390;-58
2022/07/10 04:58:40;;;;;;;12.60;3.88;;;14.40;99.90;;;;;;5072733;28;20067;-57
2022/07/10 05:01:06;;;;;;;8.52;4.53;;;14.40;99.90;;;;;;5072745;28;20048;-57
2022/07/10 05:03:32;;;;;;;9.65;4.03;;;14.60;99.90;;;;;;5070943;28;20056;-56
2022/07/10 05:05:57;;;;;;;9.15;4.10;;;14.70;99.90;;;;;;5072219;28;20032;-57
2022/07/10 05:08:23;;;;;;;7.70;4.38;;;14.70;99.90;;;;;;5072255;28;20070;-57
2022/07/10 05:10:48;;;;;;;10.65;4.32;;;14.80;99.90;;;;;;5072031;28;20058;-57
2022/07/10 05:13:14;;;;;;;10.45;4.25;;;14.80;99.90;;;;;;5072075;28;20035;-58
2022/07/10 05:15:40;;;;;;;8.65;4.15;;;14.80;99.90;;;;;;5071755;28;20077;-57
2022/07/10 05:18:05;;;;;;;12.57;4.70;;;14.90;99.90;;;;;;5072331;28;20036;-58
2022/07/10 05:20:32;;;;;;;8.75;4.30;;;14.90;99.90;;;;;;5071951;28;20020;-57
2022/07/10 05:22:57;;;;;;;9.57;4.50;;;15.00;99.90;;;;;;5071370;28;20434;-57
2022/07/10 05:25:26;;;;;;;5.80;3.78;;;15.10;99.90;;;;;;5071942;28;20146;-57
2022/07/10 05:27:52;;;;;;;11.35;4.43;;;15.10;99.90;;;;;;5071934;28;20029;-57
2022/07/10 05:30:17;;;;;;;8.25;3.95;;;15.20;99.90;;;;;;5071723;28;20374;-58
2022/07/10 05:32:44;;;;;;;9.55;4.35;;;15.20;99.90;;;;;;5071611;28;20090;-56
2022/07/10 05:35:10;;;;;;;9.98;4.13;;;15.40;99.90;;;;;;5071160;28;20029;-57
2022/07/10 05:37:36;;;;;;;6.07;4.15;;;15.40;99.90;;;;;;5071471;28;20027;-57
2022/07/10 05:40:03;;;;;;;13.32;5.15;;;15.50;99.90;;;;;;5071494;28;20388;-57
2022/07/10 05:42:28;;;;;;;8.98;4.63;;;15.60;99.90;;;;;;5071427;28;20032;-57
2022/07/10 05:44:54;;;;;;;9.95;4.60;;;15.60;99.90;;;;;;5071088;28;20107;-58
2022/07/10 05:47:19;;;;;;;10.10;4.30;;;15.60;99.90;;;;;;5071031;28;20051;-58
2022/07/10 05:49:45;;;;;;;8.98;4.63;;;15.70;99.90;;;;;;5071430;28;20079;-57
2022/07/10 05:52:11;;;;;;;7.80;4.85;;;15.70;99.90;;;;;;5071258;28;20052;-57
2022/07/10 05:54:37;;;;;;;10.52;4.57;;;15.80;99.90;;;;;;5070351;28;20493;-58
2022/07/10 05:57:03;;;;;;;9.00;3.78;;;15.90;99.90;;;;;;5071053;28;20031;-58
2022/07/10 05:59:28;;;;;;;10.48;4.05;;;16.00;99.90;;;;;;5071067;28;20534;-57
2022/07/10 06:01:54;;;;;;;7.15;3.70;;;16.00;99.90;;;;;;5070879;28;20473;-57
2022/07/10 06:04:20;;;;;;;10.75;4.20;;;16.00;99.90;;;;;;5071271;28;20112;-57
2022/07/10 06:06:46;;;;;;;8.00;3.70;;;16.20;99.90;;;;;;5070988;28;20153;-58
2022/07/10 06:09:12;;;;;;;8.23;4.47;;;16.30;99.90;;;;;;5069667;28;20101;-57
2022/07/10 06:11:37;;;;;;;8.27;3.70;;;16.40;99.90;;;;;;5070846;28;20029;-57
2022/07/10 06:14:03;;;;;;;6.90;3.40;;;16.50;99.90;;;;;;5069374;28;20036;-57
2022/07/10 06:16:29;;;;;;;10.25;3.80;;;16.50;99.90;;;;;;5070952;28;20028;-57
2022/07/10 06:18:54;;;;;;;12.43;4.30;;;16.60;99.90;;;;;;5070980;28;20023;-58
2022/07/10 06:21:21;;;;;;;13.48;3.85;;;16.80;99.90;;;;;;5070641;28;20060;-58
2022/07/10 06:23:47;;;;;;;9.13;3.70;;;16.90;99.90;;;;;;5070881;28;20420;-58
2022/07/10 06:26:13;;;;;;;10.13;3.60;;;17.00;99.90;;;;;;5070715;28;20023;-57
2022/07/10 06:28:39;;;;;;;6.25;3.22;;;17.20;99.90;;;;;;5071132;28;20872;-57
2022/07/10 06:31:05;;;;;;;6.07;2.60;;;17.20;99.90;;;;;;5069663;28;20047;-57
2022/07/10 06:33:32;;;;;;;6.55;2.90;;;17.10;99.90;;;;;;5070590;28;20485;-57
2022/07/10 06:35:58;;;;;;;9.23;2.67;;;17.20;99.90;;;;;;5070593;28;20542;-57
2022/07/10 06:38:23;;;;;;;6.70;2.20;;;17.30;99.90;;;;;;5070896;28;20024;-58
2022/07/10 06:40:51;;;;;;;8.23;2.58;;;17.40;99.90;;;;;;5070444;28;20024;-57
2022/07/10 06:43:16;;;;;;;7.07;2.17;;;17.50;99.90;;;;;;5070625;28;20032;-58
2022/07/10 06:45:42;;;;;;;5.10;1.88;;;17.60;99.90;;;;;;5070486;28;20432;-58
2022/07/10 06:48:08;;;;;;;5.95;1.42;;;17.90;99.90;;;;;;5070461;28;20079;-58
2022/07/10 06:50:34;;;;;;;5.13;1.40;;;19.00;99.90;;;;;;5070530;28;20127;-58
2022/07/10 06:53:01;;;;;;;5.45;1.27;;;20.50;99.90;;;;;;5070204;28;20397;-58
2022/07/10 06:55:28;;;;;;;6.15;1.45;;;22.50;99.90;;;;;;5070313;28;20028;-58
2022/07/10 06:57:54;;;;;;;4.70;1.30;;;22.80;99.90;;;;;;5070394;28;20028;-58
2022/07/10 07:00:20;;;;;;;5.85;1.20;;;22.60;99.90;;;;;;5070972;28;20382;-58
2022/07/10 07:02:46;;;;;;;5.03;1.33;;;22.70;99.90;;;;;;5070220;28;20119;-58
2022/07/10 07:05:12;;;;;;;3.30;1.42;;;22.00;99.90;;;;;;5072486;28;20154;-58
2022/07/10 07:07:38;;;;;;;3.70;1.30;;;21.10;99.90;;;;;;5074135;28;20071;-58
2022/07/10 07:10:05;;;;;;;6.82;1.88;;;20.70;99.90;;;;;;5074029;28;20424;-58
2022/07/10 07:12:31;;;;;;;4.00;1.05;;;20.40;99.90;;;;;;5073971;28;20040;-58
2022/07/10 07:14:57;;;;;;;4.25;1.40;;;20.30;99.90;;;;;;5073710;28;20032;-58
2022/07/10 07:17:24;;;;;;;4.45;1.50;;;20.30;99.90;;;;;;5073744;28;20093;-58
2022/07/10 07:25:30;;;;;;;3.83;1.40;;;20.30;99.90;;;;;;5073669;28;20159;-58
2022/07/10 07:27:55;;;;;;;7.00;1.73;;;20.10;99.90;;;;;;5072634;28;20127;-58
2022/07/10 07:30:21;;;;;;;6.78;1.50;;;19.80;99.90;;;;;;5073663;28;20477;-58
2022/07/10 07:32:47;;;;;;;4.60;1.30;;;20.10;99.90;;;;;;5073650;28;20032;-58
2022/07/10 07:35:15;;;;;;;6.70;1.42;;;20.40;99.90;;;;;;5073680;28;20028;-58
2022/07/10 07:37:42;;;;;;;4.68;1.13;;;20.60;99.90;;;;;;5073822;28;20031;-58
2022/07/10 07:40:10;;;;;;;5.50;1.42;;;20.90;99.90;;;;;;5073425;28;20023;-58
2022/07/10 07:42:36;;;;;;;5.32;1.42;;;21.00;99.90;;;;;;5055640;28;20091;-58
2022/07/10 07:45:03;;;;;;;4.97;1.10;;;21.30;99.90;;;;;;5073541;28;20119;-58
2022/07/10 07:47:30;;;;;;;6.72;1.30;;;21.60;99.90;;;;;;5073829;28;20028;-58
2022/07/10 07:49:56;;;;;;;3.70;1.10;;;22.30;99.90;;;;;;5072686;28;20037;-58
2022/07/10 07:52:22;;;;;;;2.72;1.23;;;23.60;99.90;;;;;;5071988;28;20052;-58
2022/07/10 07:54:49;;;;;;;5.28;1.65;;;24.90;99.50;;;;;;5073223;28;20020;-58
2022/07/10 07:57:15;;;;;;;3.60;1.08;;;25.30;97.40;;;;;;5073503;28;20023;-58
2022/07/10 07:59:40;;;;;;;4.70;1.60;;;25.80;97.00;;;;;;5073634;28;20025;-60
2022/07/10 08:02:06;;;;;;;5.47;1.30;;;26.40;95.20;;;;;;5073240;28;20086;-60
2022/07/10 08:04:32;;;;;;;6.43;1.77;;;26.10;94.50;;;;;;5072984;28;20027;-60
2022/07/10 08:06:58;;;;;;;4.47;1.40;;;26.20;94.60;;;;;;5072975;28;20493;-60
2022/07/10 08:09:23;;;;;;;4.82;1.17;;;27.30;93.50;;;;;;5073120;28;20396;-61
2022/07/10 08:11:49;;;;;;;4.68;1.45;;;28.30;90.40;;;;;;5072892;28;20031;-60
2022/07/10 08:14:14;;;;;;;4.03;1.45;;;28.30;88.30;;;;;;5072916;28;20334;-60
2022/07/10 08:16:40;;;;;;;5.05;1.00;;;28.30;87.90;;;;;;5072045;28;20427;-61
2022/07/10 08:19:06;;;;;;;2.92;1.30;;;28.60;85.70;;;;;;5072903;28;20033;-60
2022/07/10 08:21:32;;;;;;;6.90;1.60;;;28.60;86.20;;;;;;5072882;28;20051;-60
2022/07/10 08:23:58;;;;;;;3.65;1.23;;;28.30;87.30;;;;;;5072727;28;20047;-60
2022/07/10 08:26:24;;;;;;;3.95;1.17;;;28.30;85.70;;;;;;5072559;28;20029;-61
2022/07/10 08:28:49;;;;;;;3.80;1.25;;;27.70;87.40;;;;;;5071576;28;20047;-60
2022/07/10 08:31:15;;;;;;;5.28;1.52;;;28.00;87.10;;;;;;5072890;28;20154;-60
2022/07/10 08:33:41;;;;;;;4.63;1.40;;;28.50;83.60;;;;;;5073024;28;20040;-60
2022/07/10 08:36:06;;;;;;;5.32;1.38;;;28.00;85.20;;;;;;5072583;28;20396;-60
2022/07/10 08:38:32;;;;;;;6.05;1.58;;;27.20;87.70;;;;;;5073141;28;20025;-60
2022/07/10 08:41:02;;;;;;;5.25;1.30;;;26.20;90.30;;;;;;5072367;28;20056;-60
2022/07/10 08:43:29;;;;;;;3.25;1.10;;;25.60;91.30;;;;;;5072306;28;20396;-60
2022/07/10 08:45:55;;;;;;;2.47;1.13;;;25.50;90.90;;;;;;5072683;28;20032;-60
2022/07/10 08:48:24;;;;;;;3.88;1.30;;;25.10;91.60;;;;;;5072938;28;20033;-60
2022/07/10 08:50:53;;;;;;;6.70;1.40;;;25.10;91.70;;;;;;5072824;28;20040;-59
2022/07/10 08:53:30;;;;;;;5.10;1.33;;;25.00;92.00;;;;;;5072347;28;20067;-59
2022/07/10 08:55:56;;;;;;;4.57;1.58;;;24.60;92.70;;;;;;5071680;28;20103;-59
2022/07/10 08:58:23;;;;;;;6.10;1.75;;;24.30;93.10;;;;;;5071361;28;20024;-60
2022/07/10 09:00:49;;;;;;;3.22;1.02;;;24.50;92.80;;;;;;5072679;28;20453;-60
2022/07/10 09:03:15;;;;;;;3.13;1.10;;;25.20;92.70;;;;;;5072382;28;20032;-60
2022/07/10 09:05:41;;;;;;;3.35;1.40;;;25.40;91.90;;;;;;5071969;28;20550;-61
2022/07/10 09:08:23;;;;;;;4.75;1.50;;;25.40;91.70;;;;;;5072125;28;20036;-60
2022/07/10 09:10:50;;;;;;;4.57;1.40;;;24.80;92.90;;;;;;5072224;28;20531;-60
2022/07/10 09:13:16;;;;;;;3.67;1.30;;;24.70;93.40;;;;;;5072060;28;20090;-58
2022/07/10 09:15:49;;;;;;;4.85;1.50;;;24.50;93.40;;;;;;5071582;28;20473;-58
2022/07/10 09:18:22;;;;;;;4.82;1.60;;;24.70;93.40;;;;;;5071742;28;20081;-58
2022/07/10 09:20:47;;;;;;;3.88;1.40;;;24.90;93.00;;;;;;5071551;28;20017;-58
2022/07/10 09:23:17;;;;;;;4.47;1.52;;;25.00;93.10;;;;;;5071596;28;20089;-60
2022/07/10 09:25:44;;;;;;;3.75;1.40;;;25.10;92.90;;;;;;5071461;28;20095;-59
2022/07/10 09:28:10;;;;;;;4.93;1.30;;;24.50;94.20;;;;;;5070610;28;20040;-59
2022/07/10 09:30:37;;;;;;;7.05;1.73;;;24.60;94.10;;;;;;5071610;28;20234;-59
2022/07/10 09:33:26;;;;;;;5.68;1.95;;;24.90;93.30;;;;;;5071211;28;20028;-59
2022/07/10 09:36:18;;;;;;;4.82;1.33;;;25.60;92.60;;;;;;5069923;28;20032;-59
2022/07/10 09:38:44;;;;;;;3.65;1.27;;;25.90;92.00;;;;;;5072037;28;20078;-59
2022/07/10 09:41:17;;;;;;;2.53;1.00;;;26.40;91.40;;;;;;5071329;28;20044;-60
2022/07/10 09:43:47;;;;;;;3.33;1.13;;;26.40;91.20;;;;;;5071285;28;20038;-60
2022/07/10 09:46:13;;;;;;;3.75;1.40;;;26.60;89.70;;;;;;5071583;28;20547;-59
2022/07/10 09:48:39;;;;;;;3.38;1.23;;;26.90;90.00;;;;;;5071378;28;20120;-59
2022/07/10 09:51:10;;;;;;;5.05;1.65;;;27.10;89.90;;;;;;5071813;28;20443;-60
2022/07/10 09:53:41;;;;;;;3.42;1.42;;;26.70;90.60;;;;;;5071154;28;20036;-59
2022/07/10 09:56:11;;;;;;;2.88;1.20;;;27.60;89.10;;;;;;5069495;28;20085;-60
2022/07/10 09:58:37;;;;;;;5.50;1.38;;;28.70;87.30;;;;;;5071590;28;20044;-59
2022/07/10 10:01:05;;;;;;;3.92;1.48;;;28.30;85.60;;;;;;5071150;28;20021;-60
2022/07/10 10:03:39;;;;;;;2.25;1.08;;;28.10;86.30;;;;;;5070893;28;20029;-59
2022/07/10 10:06:07;;;;;;;2.35;1.10;;;28.00;87.10;;;;;;5071245;28;20082;-59
2022/07/10 10:08:47;;;;;;;2.80;1.20;;;28.00;88.10;;;;;;5070985;28;20036;-60
2022/07/10 10:11:15;;;;;;;5.85;1.88;;;27.70;86.90;;;;;;5070924;28;20038;-59
2022/07/10 10:13:42;;;;;;;3.10;1.15;;;27.00;88.80;;;;;;5070830;28;20043;-59
2022/07/10 10:16:10;;;;;;;3.25;1.15;;;27.60;88.80;;;;;;5071264;28;20024;-59
2022/07/10 10:18:37;;;;;;;3.67;1.50;;;28.50;84.20;;;;;;5071113;28;20028;-59
2022/07/10 10:21:06;;;;;;;2.75;1.10;;;29.00;83.30;;;;;;5071085;28;20025;-61
2022/07/10 10:23:34;;;;;;;5.22;1.20;;;29.10;82.60;;;;;;5069932;28;20033;-60
2022/07/10 10:25:59;;;;;;;1.63;1.05;;;28.90;83.10;;;;;;5070873;28;20025;-60
2022/07/10 10:28:26;;;;;;;2.47;1.00;;;29.30;82.60;;;;;;5071226;28;20031;-60
2022/07/10 10:30:58;;;;;;;2.83;1.27;;;29.80;80.50;;;;;;5069348;28;20032;-60
2022/07/10 10:33:33;;;;;;;3.38;1.35;;;29.40;80.90;;;;;;5070876;28;20075;-62
2022/07/10 10:35:59;;;;;;;3.67;1.33;;;29.70;79.80;;;;;;5069734;28;20028;-60
2022/07/10 10:38:48;;;;;;;4.32;1.20;;;29.40;80.60;;;;;;5071410;28;20028;-61
2022/07/10 10:41:23;;;;;;;4.30;1.02;;;28.80;81.40;;;;;;5073552;28;20496;-59
2022/07/10 10:44:07;;;;;;;4.53;1.48;;;28.30;82.50;;;;;;5073806;28;20496;-60
2022/07/10 10:46:33;;;;;;;3.88;1.33;;;27.70;84.80;;;;;;5073862;28;20440;-60
2022/07/10 10:49:08;;;;;;;2.17;1.10;;;27.10;87.00;;;;;;5075227;28;20024;-60
2022/07/10 10:52:06;;;;;;;2.70;1.38;;;27.80;85.00;;;;;;5074503;28;20016;-61
2022/07/10 10:54:54;;;;;;;4.72;1.50;;;28.60;82.30;;;;;;5070212;28;20040;-60
2022/07/10 10:57:20;;;;;;;2.03;1.17;;;28.10;83.30;;;;;;5074341;28;20068;-59
2022/07/10 10:59:49;;;;;;;4.35;1.20;;;27.40;85.20;;;;;;5074508;28;20523;-60
2022/07/10 11:02:29;;;;;;;3.80;1.48;;;27.00;86.10;;;;;;5074302;28;20082;-60
2022/07/10 11:05:22;;;;;;;2.35;1.20;;;27.00;86.50;;;;;;5074520;28;20036;-60
2022/07/10 11:07:55;;;;;;;3.67;1.33;;;26.90;86.20;;;;;;5074356;28;20028;-59
2022/07/10 11:10:40;;;;;;;4.40;1.17;;;27.10;85.60;;;;;;5073143;28;20021;-59
2022/07/10 11:13:16;;;;;;;2.17;1.00;;;27.50;86.20;;;;;;5074380;28;20096;-59
2022/07/10 11:15:44;;;;;;;4.25;1.00;;;27.40;85.50;;;;;;5074230;28;20032;-59
2022/07/10 11:18:12;;;;;;;3.17;1.10;;;26.90;86.20;;;;;;5074632;28;20032;-60
2022/07/10 11:20:45;;;;;;;4.35;0.98;;;26.40;87.20;;;;;;5072579;28;20032;-59
2022/07/10 11:23:38;;;;;;;2.88;1.20;;;26.50;86.80;;;;;;5074181;28;20067;-60
2022/07/10 11:26:12;;;;;;;4.32;1.35;;;27.10;86.10;;;;;;5073728;28;20024;-60
2022/07/10 11:29:01;;;;;;;3.97;1.10;;;27.70;85.60;;;;;;5074176;28;20063;-60
2022/07/10 11:31:27;;;;;;;2.63;1.20;;;27.80;84.70;;;;;;5073573;28;20035;-59
2022/07/10 11:33:55;;;;;;;5.47;1.30;;;27.20;86.50;;;;;;5073709;28;20029;-59
2022/07/10 11:36:34;;;;;;;4.82;1.50;;;27.20;86.70;;;;;;5073558;28;20020;-59
2022/07/10 11:39:04;;;;;;;4.82;1.35;;;27.90;86.00;;;;;;5072609;28;20435;-59
2022/07/10 11:41:30;;;;;;;2.83;1.23;;;27.90;86.30;;;;;;5073650;28;20017;-59
2022/07/10 11:44:03;;;;;;;3.10;1.20;;;28.20;84.80;;;;;;5073684;28;20033;-58
2022/07/10 11:46:30;;;;;;;5.97;1.10;;;28.10;85.20;;;;;;5072273;28;20123;-59
2022/07/10 11:48:56;;;;;;;3.50;1.15;;;27.80;84.90;;;;;;5073933;28;20029;-58
2022/07/10 11:51:27;;;;;;;5.50;1.52;;;27.70;85.30;;;;;;5072653;28;20016;-59
2022/07/10 11:54:01;;;;;;;3.53;1.08;;;28.00;85.50;;;;;;5073242;28;20115;-59
2022/07/10 11:56:29;;;;;;;3.60;1.25;;;28.40;84.10;;;;;;5073417;28;20481;-60
2022/07/10 11:58:59;;;;;;;2.60;1.30;;;28.60;83.30;;;;;;5073516;28;20085;-60
2022/07/10 12:01:25;;;;;;;2.67;1.05;;;28.80;83.20;;;;;;5072858;28;20024;-59
2022/07/10 12:04:00;;;;;;;4.75;1.20;;;28.90;83.00;;;;;;5073191;28;20511;-60
2022/07/10 12:06:26;;;;;;;3.10;1.30;;;28.30;83.50;;;;;;5073294;28;20036;-59
2022/07/10 12:08:53;;;;;;;3.25;1.08;;;26.70;86.10;;;;;;5073379;28;20029;-59
2022/07/10 12:11:20;;;;;;;4.28;1.30;;;26.30;88.40;;;;;;5073057;28;20025;-58
2022/07/10 12:13:47;;;;;;;3.20;1.20;;;26.30;89.60;;;;;;5073011;28;20099;-59
2022/07/10 12:16:14;;;;;;;2.50;1.00;;;27.10;88.00;;;;;;5072889;28;20021;-59
2022/07/10 12:18:41;;;;;;;3.22;1.23;;;27.60;85.90;;;;;;5073128;28;20103;-58
2022/07/10 12:21:09;;;;;;;4.55;1.38;;;28.00;86.40;;;;;;5073029;28;20025;-60
2022/07/10 12:23:38;;;;;;;3.97;1.23;;;28.80;84.30;;;;;;5072703;28;20032;-60
2022/07/10 12:26:04;;;;;;;5.13;1.42;;;29.20;82.40;;;;;;5072991;28;20016;-60
2022/07/10 12:28:29;;;;;;;3.17;1.25;;;29.00;82.30;;;;;;5072983;28;20432;-60
2022/07/10 12:30:55;;;;;;;4.72;1.15;;;28.90;83.20;;;;;;5072467;28;20431;-60
2022/07/10 12:33:23;;;;;;;4.20;1.40;;;29.00;82.90;;;;;;5072585;28;20067;-60
2022/07/10 12:35:57;;;;;;;2.53;1.10;;;29.40;82.00;;;;;;5071211;28;20041;-61
2022/07/10 12:38:25;;;;;;;3.53;1.10;;;29.30;81.90;;;;;;5072550;28;20305;-60
2022/07/10 12:41:06;;;;;;;3.95;1.27;;;28.90;83.20;;;;;;5072248;28;20035;-59
2022/07/10 12:43:31;;;;;;;4.95;1.38;;;28.10;84.50;;;;;;5072475;28;20021;-64
2022/07/10 12:46:19;;;;;;;3.22;1.05;;;27.80;85.80;;;;;;5072364;28;20073;-59
2022/07/10 12:49:08;;;;;;;3.17;1.23;;;27.80;85.70;;;;;;5072822;28;20036;-59
2022/07/10 12:51:47;;;;;;;2.15;0.90;;;28.90;85.10;;;;;;5072494;28;20489;-59
2022/07/10 12:54:36;;;;;;;3.58;1.10;;;28.80;83.80;;;;;;5072021;28;20029;-59
2022/07/10 12:57:04;;;;;;;4.68;1.10;;;28.50;82.90;;;;;;5071972;28;20040;-59
2022/07/10 12:59:34;;;;;;;2.72;1.10;;;27.90;84.50;;;;;;5072385;28;20025;-60